CST,Max TemperatureF,Mean TemperatureF,Min TemperatureF,Max Dew PointF,MeanDew PointF,Min DewpointF,Max Humidity, Mean Humidity, Min Humidity, Max Sea Level PressureIn, Mean Sea Level PressureIn, Min Sea Level PressureIn, Max VisibilityMiles, Mean VisibilityMiles, Min VisibilityMiles, Max Wind SpeedMPH, Mean Wind SpeedMPH, Max Gust SpeedMPH,PrecipitationIn, CloudCover, Events, WindDirDegrees
2013-2-1,29,22,14,17,11,6,74,60,46,30.55,30.43,30.29,10,10,10,21,6,26,0.00,0,,327
2013-2-2,42,33,23,34,27,17,85,67,49,30.35,30.17,30.08,10,10,8,15,7,21,T,6,Snow,226
2013-2-3,43,34,24,32,27,21,89,69,49,30.20,30.12,30.01,10,10,10,21,9,26,T,3,,310
2013-2-4,55,40,25,38,29,22,92,62,32,30.13,29.98,29.91,10,10,8,21,7,28,T,5,Rain,209
2013-2-5,60,51,39,41,36,30,85,62,32,30.08,29.98,29.92,10,10,9,14,6,,0.00,4,,280
2013-2-6,53,42,30,33,30,27,89,65,40,30.26,30.19,30.11,10,9,4,7,4,,0.00,0,,23
2013-2-7,67,53,38,47,40,31,79,61,42,30.12,29.98,29.87,10,10,10,16,7,20,0.00,3,,163
2013-2-8,55,46,37,50,37,27,96,82,65,30.36,30.12,29.89,10,9,2,23,15,29,0.21,8,Rain,352
2013-2-9,52,43,33,31,28,26,75,61,41,30.39,30.28,30.12,10,10,9,15,9,18,0.00,3,,100
2013-2-10,60,52,44,55,46,30,89,78,44,30.10,29.93,29.81,10,8,2,26,12,35,0.32,7,Rain-Thunderstorm,177
2013-2-11,59,52,44,54,33,26,93,58,35,30.17,30.07,29.90,10,10,10,18,11,25,0.00,0,,266
2013-2-12,50,39,27,32,30,27,100,66,42,30.17,30.06,29.84,10,10,2,13,4,14,0.00,3,,64
2013-2-13,45,41,37,36,34,31,92,85,58,30.00,29.88,29.78,10,8,3,21,10,25,0.12,7,Rain,335
2013-2-14,60,47,33,37,34,32,96,66,35,30.01,29.99,29.95,10,10,8,17,7,20,0.00,1,,227
2013-2-15,49,38,26,35,29,19,85,64,42,30.22,30.14,30.02,10,10,10,22,9,26,T,4,,338
2013-2-16,38,30,22,23,15,9,88,60,32,30.23,30.19,30.16,10,10,10,23,7,30,0.00,2,,304
2013-2-17,46,31,16,20,17,11,92,60,28,30.30,30.22,30.14,10,10,10,14,4,18,0.00,2,,172
2013-2-18,65,50,34,46,34,19,93,62,30,30.13,29.96,29.80,10,9,2,35,15,48,0.44,4,Rain,187
2013-2-19,49,39,29,47,30,16,82,58,33,30.26,30.04,29.84,10,10,6,24,12,31,0.02,4,Rain,275
2013-2-20,35,29,22,19,16,13,77,60,43,30.38,30.31,30.28,10,10,10,10,6,14,0.00,0,,360
2013-2-21,41,33,25,39,27,17,92,68,44,30.28,30.05,29.85,10,9,3,25,10,30,0.43,5,Rain,91
2013-2-22,57,47,37,45,40,33,100,76,51,30.05,29.94,29.84,10,8,2,18,8,25,0.01,5,,228
2013-2-23,48,39,30,34,28,25,92,69,45,30.04,30.01,29.95,10,10,8,12,5,14,0.00,3,,358
2013-2-24,52,39,25,27,25,22,85,62,38,30.17,30.09,30.01,10,10,9,12,5,14,0.00,0,,68
2013-2-25,61,48,34,40,30,25,75,53,31,30.04,29.85,29.52,10,10,10,23,13,32,T,3,Rain,89
2013-2-26,52,46,39,49,43,34,96,84,63,29.69,29.48,29.38,10,8,2,21,13,31,0.49,8,Rain,205
2013-2-27,39,38,36,34,31,28,83,75,67,29.90,29.84,29.73,10,10,8,15,12,24,0.00,8,Rain,256
2013-2-28,39,36,33,34,29,25,93,75,62,30.08,30.00,29.88,10,9,5,18,10,20,0.01,8,Snow,288